sensor_id;sensor_type;location;lat;lon;timestamp;P1;durP1;ratioP1;P2;durP2;ratioP2
17235;SDS011;8734;59.272;17.780;2023-12-07T00:00:47;36.60;;;10.10;;
17235;SDS011;8734;59.272;17.780;2023-12-07T00:03:16;36.93;;;9.03;;
17235;SDS011;8734;59.272;17.780;2023-12-07T00:05:44;40.17;;;10.57;;
17235;SDS011;8734;59.272;17.780;2023-12-07T00:08:13;35.80;;;9.53;;
17235;SDS011;8734;59.272;17.780;2023-12-07T00:10:42;38.57;;;12.20;;
17235;SDS011;8734;59.272;17.780;2023-12-07T00:13:12;32.50;;;9.50;;
17235;SDS011;8734;59.272;17.780;2023-12-07T00:15:40;36.10;;;8.97;;
17235;SDS011;8734;59.272;17.780;2023-12-07T00:18:09;28.73;;;9.33;;
17235;SDS011;8734;59.272;17.780;2023-12-07T00:20:38;33.83;;;9.33;;
17235;SDS011;8734;59.272;17.780;2023-12-07T00:23:06;34.33;;;9.80;;
17235;SDS011;8734;59.272;17.780;2023-12-07T00:25:34;32.97;;;9.77;;
17235;SDS011;8734;59.272;17.780;2023-12-07T00:28:03;44.37;;;10.97;;
17235;SDS011;8734;59.272;17.780;2023-12-07T00:30:33;40.40;;;10.17;;
17235;SDS011;8734;59.272;17.780;2023-12-07T00:33:02;31.00;;;10.10;;
17235;SDS011;8734;59.272;17.780;2023-12-07T00:35:31;59.17;;;11.37;;
17235;SDS011;8734;59.272;17.780;2023-12-07T00:37:59;32.83;;;10.23;;
17235;SDS011;8734;59.272;17.780;2023-12-07T00:40:27;33.90;;;10.03;;
17235;SDS011;8734;59.272;17.780;2023-12-07T00:42:56;34.80;;;9.87;;
17235;SDS011;8734;59.272;17.780;2023-12-07T00:45:25;33.00;;;10.07;;
17235;SDS011;8734;59.272;17.780;2023-12-07T00:47:55;31.33;;;10.23;;
17235;SDS011;8734;59.272;17.780;2023-12-07T00:50:24;32.33;;;9.50;;
17235;SDS011;8734;59.272;17.780;2023-12-07T00:52:52;36.10;;;9.87;;
17235;SDS011;8734;59.272;17.780;2023-12-07T00:55:21;39.73;;;11.13;;
17235;SDS011;8734;59.272;17.780;2023-12-07T00:57:49;45.20;;;10.77;;
17235;SDS011;8734;59.272;17.780;2023-12-07T01:00:17;31.63;;;8.97;;
17235;SDS011;8734;59.272;17.780;2023-12-07T01:02:46;35.67;;;10.13;;
17235;SDS011;8734;59.272;17.780;2023-12-07T01:05:16;31.40;;;10.13;;
17235;SDS011;8734;59.272;17.780;2023-12-07T01:07:44;31.70;;;10.03;;
17235;SDS011;8734;59.272;17.780;2023-12-07T01:10:13;32.20;;;9.27;;
17235;SDS011;8734;59.272;17.780;2023-12-07T01:12:41;33.60;;;10.83;;
17235;SDS011;8734;59.272;17.780;2023-12-07T01:15:10;36.00;;;10.30;;
17235;SDS011;8734;59.272;17.780;2023-12-07T01:17:39;31.37;;;9.60;;
17235;SDS011;8734;59.272;17.780;2023-12-07T01:20:08;32.53;;;9.17;;
17235;SDS011;8734;59.272;17.780;2023-12-07T01:22:40;32.50;;;9.57;;
17235;SDS011;8734;59.272;17.780;2023-12-07T01:25:09;28.40;;;9.17;;
17235;SDS011;8734;59.272;17.780;2023-12-07T01:27:37;37.33;;;10.43;;
17235;SDS011;8734;59.272;17.780;2023-12-07T01:30:07;45.20;;;10.43;;
17235;SDS011;8734;59.272;17.780;2023-12-07T01:32:36;33.30;;;9.23;;
17235;SDS011;8734;59.272;17.780;2023-12-07T01:35:04;27.60;;;7.80;;
17235;SDS011;8734;59.272;17.780;2023-12-07T01:37:34;24.77;;;8.80;;
17235;SDS011;8734;59.272;17.780;2023-12-07T01:40:05;30.97;;;9.07;;
17235;SDS011;8734;59.272;17.780;2023-12-07T01:42:37;25.27;;;9.57;;
17235;SDS011;8734;59.272;17.780;2023-12-07T01:45:06;24.30;;;9.37;;
17235;SDS011;8734;59.272;17.780;2023-12-07T01:47:35;37.77;;;10.17;;
17235;SDS011;8734;59.272;17.780;2023-12-07T01:50:05;25.97;;;9.53;;
17235;SDS011;8734;59.272;17.780;2023-12-07T01:52:34;36.40;;;10.77;;
17235;SDS011;8734;59.272;17.780;2023-12-07T01:55:07;37.63;;;10.97;;
17235;SDS011;8734;59.272;17.780;2023-12-07T01:57:37;26.67;;;10.00;;
17235;SDS011;8734;59.272;17.780;2023-12-07T02:00:07;30.20;;;9.30;;
17235;SDS011;8734;59.272;17.780;2023-12-07T02:02:36;30.90;;;9.33;;
17235;SDS011;8734;59.272;17.780;2023-12-07T02:05:06;33.27;;;9.63;;
17235;SDS011;8734;59.272;17.780;2023-12-07T02:07:35;22.23;;;8.67;;
17235;SDS011;8734;59.272;17.780;2023-12-07T02:10:04;25.97;;;8.60;;
17235;SDS011;8734;59.272;17.780;2023-12-07T02:12:35;21.63;;;8.27;;
17235;SDS011;8734;59.272;17.780;2023-12-07T02:15:04;20.63;;;6.70;;
17235;SDS011;8734;59.272;17.780;2023-12-07T02:17:35;26.27;;;8.93;;
17235;SDS011;8734;59.272;17.780;2023-12-07T02:20:11;22.83;;;8.33;;
17235;SDS011;8734;59.272;17.780;2023-12-07T02:22:45;25.53;;;8.47;;
17235;SDS011;8734;59.272;17.780;2023-12-07T02:25:19;18.93;;;7.70;;
17235;SDS011;8734;59.272;17.780;2023-12-07T02:27:53;26.33;;;8.63;;
17235;SDS011;8734;59.272;17.780;2023-12-07T02:30:22;24.37;;;8.03;;
17235;SDS011;8734;59.272;17.780;2023-12-07T02:32:50;20.17;;;7.43;;
17235;SDS011;8734;59.272;17.780;2023-12-07T02:35:18;26.77;;;8.40;;
17235;SDS011;8734;59.272;17.780;2023-12-07T02:37:48;30.67;;;8.40;;
17235;SDS011;8734;59.272;17.780;2023-12-07T02:40:18;24.77;;;7.93;;
17235;SDS011;8734;59.272;17.780;2023-12-07T02:42:49;23.63;;;7.43;;
17235;SDS011;8734;59.272;17.780;2023-12-07T02:45:19;19.00;;;7.23;;
17235;SDS011;8734;59.272;17.780;2023-12-07T02:47:47;22.13;;;7.10;;
17235;SDS011;8734;59.272;17.780;2023-12-07T02:50:16;20.50;;;6.33;;
17235;SDS011;8734;59.272;17.780;2023-12-07T02:52:44;18.80;;;6.67;;
17235;SDS011;8734;59.272;17.780;2023-12-07T02:55:12;24.30;;;7.27;;
17235;SDS011;8734;59.272;17.780;2023-12-07T02:57:41;21.10;;;6.83;;
17235;SDS011;8734;59.272;17.780;2023-12-07T03:00:10;17.70;;;6.53;;
17235;SDS011;8734;59.272;17.780;2023-12-07T03:02:42;16.17;;;6.27;;
17235;SDS011;8734;59.272;17.780;2023-12-07T03:05:10;20.70;;;6.40;;
17235;SDS011;8734;59.272;17.780;2023-12-07T03:07:38;19.30;;;6.40;;
17235;SDS011;8734;59.272;17.780;2023-12-07T03:10:07;19.07;;;6.90;;
17235;SDS011;8734;59.272;17.780;2023-12-07T03:12:36;28.70;;;6.50;;
17235;SDS011;8734;59.272;17.780;2023-12-07T03:15:05;19.10;;;6.40;;
17235;SDS011;8734;59.272;17.780;2023-12-07T03:17:33;24.47;;;6.67;;
17235;SDS011;8734;59.272;17.780;2023-12-07T03:20:04;17.27;;;6.10;;
17235;SDS011;8734;59.272;17.780;2023-12-07T03:22:34;13.43;;;5.80;;
17235;SDS011;8734;59.272;17.780;2023-12-07T03:25:04;14.30;;;5.83;;
17235;SDS011;8734;59.272;17.780;2023-12-07T03:27:32;16.73;;;5.60;;
17235;SDS011;8734;59.272;17.780;2023-12-07T03:30:00;17.63;;;6.90;;
17235;SDS011;8734;59.272;17.780;2023-12-07T03:32:29;14.83;;;5.53;;
17235;SDS011;8734;59.272;17.780;2023-12-07T03:34:57;13.40;;;5.67;;
17235;SDS011;8734;59.272;17.780;2023-12-07T03:37:27;14.77;;;5.00;;
17235;SDS011;8734;59.272;17.780;2023-12-07T03:39:55;22.33;;;6.87;;
17235;SDS011;8734;59.272;17.780;2023-12-07T03:42:24;23.57;;;6.53;;
17235;SDS011;8734;59.272;17.780;2023-12-07T03:45:12;14.33;;;5.57;;
17235;SDS011;8734;59.272;17.780;2023-12-07T03:47:40;13.90;;;5.33;;
17235;SDS011;8734;59.272;17.780;2023-12-07T03:50:09;14.43;;;5.70;;
17235;SDS011;8734;59.272;17.780;2023-12-07T03:52:39;10.30;;;5.67;;
17235;SDS011;8734;59.272;17.780;2023-12-07T03:55:07;14.23;;;5.73;;
17235;SDS011;8734;59.272;17.780;2023-12-07T03:57:37;16.13;;;5.83;;
17235;SDS011;8734;59.272;17.780;2023-12-07T04:00:06;22.87;;;5.97;;
17235;SDS011;8734;59.272;17.780;2023-12-07T04:02:37;15.27;;;5.67;;
17235;SDS011;8734;59.272;17.780;2023-12-07T04:05:06;15.47;;;5.37;;
17235;SDS011;8734;59.272;17.780;2023-12-07T04:07:35;17.27;;;5.90;;
17235;SDS011;8734;59.272;17.780;2023-12-07T04:10:05;12.80;;;6.10;;
17235;SDS011;8734;59.272;17.780;2023-12-07T04:12:34;13.97;;;5.37;;
17235;SDS011;8734;59.272;17.780;2023-12-07T04:15:03;16.17;;;6.23;;
17235;SDS011;8734;59.272;17.780;2023-12-07T04:17:32;15.47;;;5.57;;
17235;SDS011;8734;59.272;17.780;2023-12-07T04:20:00;18.53;;;5.87;;
17235;SDS011;8734;59.272;17.780;2023-12-07T04:22:29;12.60;;;5.43;;
17235;SDS011;8734;59.272;17.780;2023-12-07T04:24:57;18.07;;;6.23;;
17235;SDS011;8734;59.272;17.780;2023-12-07T04:27:28;12.17;;;5.73;;
17235;SDS011;8734;59.272;17.780;2023-12-07T04:29:56;10.63;;;5.10;;
17235;SDS011;8734;59.272;17.780;2023-12-07T04:32:25;13.70;;;5.27;;
17235;SDS011;8734;59.272;17.780;2023-12-07T04:34:53;11.03;;;5.13;;
17235;SDS011;8734;59.272;17.780;2023-12-07T04:37:22;13.93;;;4.43;;
17235;SDS011;8734;59.272;17.780;2023-12-07T04:39:50;11.60;;;5.37;;
17235;SDS011;8734;59.272;17.780;2023-12-07T04:42:18;16.07;;;5.63;;
17235;SDS011;8734;59.272;17.780;2023-12-07T04:44:48;11.87;;;5.07;;
17235;SDS011;8734;59.272;17.780;2023-12-07T04:47:16;13.07;;;4.80;;
17235;SDS011;8734;59.272;17.780;2023-12-07T04:49:45;13.90;;;5.20;;
17235;SDS011;8734;59.272;17.780;2023-12-07T04:52:14;11.10;;;4.73;;
17235;SDS011;8734;59.272;17.780;2023-12-07T04:54:42;14.67;;;5.30;;
17235;SDS011;8734;59.272;17.780;2023-12-07T04:57:11;10.43;;;5.33;;
17235;SDS011;8734;59.272;17.780;2023-12-07T04:59:39;13.50;;;4.57;;
17235;SDS011;8734;59.272;17.780;2023-12-07T05:02:09;13.17;;;5.57;;
17235;SDS011;8734;59.272;17.780;2023-12-07T05:04:38;15.03;;;5.70;;
17235;SDS011;8734;59.272;17.780;2023-12-07T05:07:06;15.93;;;4.97;;
17235;SDS011;8734;59.272;17.780;2023-12-07T05:09:35;12.83;;;4.83;;
17235;SDS011;8734;59.272;17.780;2023-12-07T05:12:04;16.40;;;5.47;;
17235;SDS011;8734;59.272;17.780;2023-12-07T05:14:33;10.80;;;4.90;;
17235;SDS011;8734;59.272;17.780;2023-12-07T05:17:02;14.27;;;5.97;;
17235;SDS011;8734;59.272;17.780;2023-12-07T05:19:33;18.10;;;6.47;;
17235;SDS011;8734;59.272;17.780;2023-12-07T05:22:01;11.10;;;4.67;;
17235;SDS011;8734;59.272;17.780;2023-12-07T05:24:30;11.97;;;5.07;;
17235;SDS011;8734;59.272;17.780;2023-12-07T05:27:00;12.00;;;6.00;;
17235;SDS011;8734;59.272;17.780;2023-12-07T05:29:30;13.80;;;5.53;;
17235;SDS011;8734;59.272;17.780;2023-12-07T05:31:59;10.67;;;4.83;;
17235;SDS011;8734;59.272;17.780;2023-12-07T05:34:30;12.80;;;5.07;;
17235;SDS011;8734;59.272;17.780;2023-12-07T05:37:00;14.30;;;5.00;;
17235;SDS011;8734;59.272;17.780;2023-12-07T05:39:29;15.93;;;5.00;;
17235;SDS011;8734;59.272;17.780;2023-12-07T05:41:57;10.17;;;5.30;;
17235;SDS011;8734;59.272;17.780;2023-12-07T05:44:25;8.57;;;4.47;;
17235;SDS011;8734;59.272;17.780;2023-12-07T05:46:54;12.13;;;5.13;;
17235;SDS011;8734;59.272;17.780;2023-12-07T05:49:24;10.43;;;4.80;;
17235;SDS011;8734;59.272;17.780;2023-12-07T05:51:53;13.90;;;5.30;;
17235;SDS011;8734;59.272;17.780;2023-12-07T05:54:23;11.17;;;4.80;;
17235;SDS011;8734;59.272;17.780;2023-12-07T05:56:51;10.00;;;5.13;;
17235;SDS011;8734;59.272;17.780;2023-12-07T05:59:19;11.63;;;5.07;;
17235;SDS011;8734;59.272;17.780;2023-12-07T06:01:50;15.27;;;5.97;;
17235;SDS011;8734;59.272;17.780;2023-12-07T06:04:20;16.70;;;4.90;;
17235;SDS011;8734;59.272;17.780;2023-12-07T06:06:49;13.70;;;5.27;;
17235;SDS011;8734;59.272;17.780;2023-12-07T06:09:17;13.63;;;5.87;;
17235;SDS011;8734;59.272;17.780;2023-12-07T06:11:47;13.57;;;5.30;;
17235;SDS011;8734;59.272;17.780;2023-12-07T06:14:15;10.53;;;4.87;;
17235;SDS011;8734;59.272;17.780;2023-12-07T06:16:44;11.60;;;4.93;;
17235;SDS011;8734;59.272;17.780;2023-12-07T06:19:12;11.03;;;4.43;;
17235;SDS011;8734;59.272;17.780;2023-12-07T06:21:40;11.17;;;5.27;;
17235;SDS011;8734;59.272;17.780;2023-12-07T06:24:09;17.87;;;6.17;;
17235;SDS011;8734;59.272;17.780;2023-12-07T06:26:37;17.03;;;5.93;;
17235;SDS011;8734;59.272;17.780;2023-12-07T06:29:07;16.93;;;5.80;;
17235;SDS011;8734;59.272;17.780;2023-12-07T06:31:35;11.60;;;5.33;;
17235;SDS011;8734;59.272;17.780;2023-12-07T06:34:04;11.67;;;5.40;;
17235;SDS011;8734;59.272;17.780;2023-12-07T06:36:33;12.27;;;5.67;;
17235;SDS011;8734;59.272;17.780;2023-12-07T06:39:02;13.53;;;5.43;;
17235;SDS011;8734;59.272;17.780;2023-12-07T06:41:30;14.60;;;6.63;;
17235;SDS011;8734;59.272;17.780;2023-12-07T06:44:00;10.40;;;5.03;;
17235;SDS011;8734;59.272;17.780;2023-12-07T06:46:30;13.07;;;5.40;;
17235;SDS011;8734;59.272;17.780;2023-12-07T06:48:58;9.97;;;4.87;;
17235;SDS011;8734;59.272;17.780;2023-12-07T06:51:26;11.13;;;5.20;;
17235;SDS011;8734;59.272;17.780;2023-12-07T06:53:54;11.40;;;5.30;;
17235;SDS011;8734;59.272;17.780;2023-12-07T06:56:23;13.00;;;4.93;;
17235;SDS011;8734;59.272;17.780;2023-12-07T06:58:51;12.37;;;5.20;;
17235;SDS011;8734;59.272;17.780;2023-12-07T07:01:19;15.87;;;5.27;;
17235;SDS011;8734;59.272;17.780;2023-12-07T07:03:49;17.37;;;6.43;;
17235;SDS011;8734;59.272;17.780;2023-12-07T07:06:17;10.77;;;5.67;;
17235;SDS011;8734;59.272;17.780;2023-12-07T07:08:46;15.03;;;6.00;;
17235;SDS011;8734;59.272;17.780;2023-12-07T07:11:15;15.37;;;5.43;;
17235;SDS011;8734;59.272;17.780;2023-12-07T07:13:43;14.57;;;5.40;;
17235;SDS011;8734;59.272;17.780;2023-12-07T07:16:12;15.17;;;5.90;;
17235;SDS011;8734;59.272;17.780;2023-12-07T07:18:40;15.33;;;5.60;;
17235;SDS011;8734;59.272;17.780;2023-12-07T07:21:10;12.80;;;5.37;;
17235;SDS011;8734;59.272;17.780;2023-12-07T07:23:38;13.83;;;6.23;;
17235;SDS011;8734;59.272;17.780;2023-12-07T07:26:06;11.00;;;5.57;;
17235;SDS011;8734;59.272;17.780;2023-12-07T07:28:35;10.77;;;5.30;;
17235;SDS011;8734;59.272;17.780;2023-12-07T07:31:04;20.43;;;7.17;;
17235;SDS011;8734;59.272;17.780;2023-12-07T07:33:32;14.33;;;6.20;;
17235;SDS011;8734;59.272;17.780;2023-12-07T07:36:01;17.03;;;6.13;;
17235;SDS011;8734;59.272;17.780;2023-12-07T07:38:30;13.10;;;5.83;;
17235;SDS011;8734;59.272;17.780;2023-12-07T07:40:59;12.07;;;5.50;;
17235;SDS011;8734;59.272;17.780;2023-12-07T07:43:27;13.53;;;5.60;;
17235;SDS011;8734;59.272;17.780;2023-12-07T07:45:56;12.10;;;5.40;;
17235;SDS011;8734;59.272;17.780;2023-12-07T07:48:24;13.43;;;5.33;;
17235;SDS011;8734;59.272;17.780;2023-12-07T07:50:53;13.33;;;5.80;;
17235;SDS011;8734;59.272;17.780;2023-12-07T07:53:22;11.80;;;5.77;;
17235;SDS011;8734;59.272;17.780;2023-12-07T07:55:52;12.80;;;5.50;;
17235;SDS011;8734;59.272;17.780;2023-12-07T07:58:21;20.20;;;5.33;;
17235;SDS011;8734;59.272;17.780;2023-12-07T08:00:49;18.60;;;5.30;;
17235;SDS011;8734;59.272;17.780;2023-12-07T08:03:18;12.50;;;4.93;;
17235;SDS011;8734;59.272;17.780;2023-12-07T08:05:47;14.20;;;4.33;;
17235;SDS011;8734;59.272;17.780;2023-12-07T08:08:15;15.90;;;6.10;;
17235;SDS011;8734;59.272;17.780;2023-12-07T08:10:44;11.97;;;5.80;;
17235;SDS011;8734;59.272;17.780;2023-12-07T08:13:23;11.07;;;4.90;;
17235;SDS011;8734;59.272;17.780;2023-12-07T08:15:51;15.10;;;5.80;;
17235;SDS011;8734;59.272;17.780;2023-12-07T08:18:24;11.57;;;6.27;;
17235;SDS011;8734;59.272;17.780;2023-12-07T08:20:53;17.57;;;6.30;;
17235;SDS011;8734;59.272;17.780;2023-12-07T08:23:22;11.60;;;5.83;;
17235;SDS011;8734;59.272;17.780;2023-12-07T08:25:51;14.77;;;6.37;;
17235;SDS011;8734;59.272;17.780;2023-12-07T08:28:19;18.63;;;7.13;;
17235;SDS011;8734;59.272;17.780;2023-12-07T08:30:49;14.13;;;5.70;;
17235;SDS011;8734;59.272;17.780;2023-12-07T08:33:17;15.60;;;6.63;;
17235;SDS011;8734;59.272;17.780;2023-12-07T08:35:46;15.90;;;5.77;;
17235;SDS011;8734;59.272;17.780;2023-12-07T08:38:15;15.20;;;5.73;;
17235;SDS011;8734;59.272;17.780;2023-12-07T08:40:43;11.53;;;5.30;;
17235;SDS011;8734;59.272;17.780;2023-12-07T08:43:12;18.03;;;6.00;;
17235;SDS011;8734;59.272;17.780;2023-12-07T08:45:40;11.43;;;5.70;;
17235;SDS011;8734;59.272;17.780;2023-12-07T08:48:10;10.70;;;4.67;;
17235;SDS011;8734;59.272;17.780;2023-12-07T08:50:38;10.07;;;5.03;;
17235;SDS011;8734;59.272;17.780;2023-12-07T08:53:07;13.47;;;5.23;;
17235;SDS011;8734;59.272;17.780;2023-12-07T08:55:35;12.07;;;5.90;;
17235;SDS011;8734;59.272;17.780;2023-12-07T08:58:04;11.87;;;5.43;;
17235;SDS011;8734;59.272;17.780;2023-12-07T09:00:33;13.33;;;5.37;;
17235;SDS011;8734;59.272;17.780;2023-12-07T09:03:01;12.27;;;5.43;;
17235;SDS011;8734;59.272;17.780;2023-12-07T09:05:31;13.13;;;6.00;;
17235;SDS011;8734;59.272;17.780;2023-12-07T09:07:59;10.37;;;5.37;;
17235;SDS011;8734;59.272;17.780;2023-12-07T09:10:27;17.43;;;6.27;;
17235;SDS011;8734;59.272;17.780;2023-12-07T09:12:56;15.83;;;5.03;;
17235;SDS011;8734;59.272;17.780;2023-12-07T09:15:24;12.30;;;6.00;;
17235;SDS011;8734;59.272;17.780;2023-12-07T09:17:55;21.70;;;6.77;;
17235;SDS011;8734;59.272;17.780;2023-12-07T09:20:23;17.50;;;6.47;;
17235;SDS011;8734;59.272;17.780;2023-12-07T09:22:53;12.87;;;6.13;;
17235;SDS011;8734;59.272;17.780;2023-12-07T09:25:23;17.40;;;6.97;;
17235;SDS011;8734;59.272;17.780;2023-12-07T09:27:54;23.23;;;7.67;;
17235;SDS011;8734;59.272;17.780;2023-12-07T09:30:22;18.07;;;7.53;;
17235;SDS011;8734;59.272;17.780;2023-12-07T09:32:51;15.13;;;6.13;;
17235;SDS011;8734;59.272;17.780;2023-12-07T09:35:19;18.00;;;6.90;;
17235;SDS011;8734;59.272;17.780;2023-12-07T09:37:48;17.23;;;6.63;;
17235;SDS011;8734;59.272;17.780;2023-12-07T09:40:18;19.03;;;7.90;;
17235;SDS011;8734;59.272;17.780;2023-12-07T09:42:48;18.70;;;7.10;;
17235;SDS011;8734;59.272;17.780;2023-12-07T09:45:17;18.60;;;7.30;;
17235;SDS011;8734;59.272;17.780;2023-12-07T09:47:48;16.17;;;7.60;;
17235;SDS011;8734;59.272;17.780;2023-12-07T09:50:18;17.27;;;6.70;;
17235;SDS011;8734;59.272;17.780;2023-12-07T09:52:49;22.50;;;8.33;;
17235;SDS011;8734;59.272;17.780;2023-12-07T09:55:34;19.00;;;7.57;;
17235;SDS011;8734;59.272;17.780;2023-12-07T09:58:04;16.07;;;7.37;;
17235;SDS011;8734;59.272;17.780;2023-12-07T10:00:35;21.07;;;7.13;;
17235;SDS011;8734;59.272;17.780;2023-12-07T10:03:05;19.00;;;8.03;;
17235;SDS011;8734;59.272;17.780;2023-12-07T10:08:27;16.33;;;6.90;;
17235;SDS011;8734;59.272;17.780;2023-12-07T10:11:17;20.37;;;8.67;;
17235;SDS011;8734;59.272;17.780;2023-12-07T10:13:45;28.40;;;9.10;;
17235;SDS011;8734;59.272;17.780;2023-12-07T10:16:15;22.97;;;9.17;;
17235;SDS011;8734;59.272;17.780;2023-12-07T10:18:45;24.63;;;9.57;;
17235;SDS011;8734;59.272;17.780;2023-12-07T10:21:15;21.03;;;8.83;;
17235;SDS011;8734;59.272;17.780;2023-12-07T10:23:45;19.30;;;7.83;;
17235;SDS011;8734;59.272;17.780;2023-12-07T10:26:17;17.77;;;8.23;;
17235;SDS011;8734;59.272;17.780;2023-12-07T10:28:48;21.00;;;7.90;;
17235;SDS011;8734;59.272;17.780;2023-12-07T10:31:20;24.90;;;8.33;;
17235;SDS011;8734;59.272;17.780;2023-12-07T10:33:50;24.00;;;9.13;;
17235;SDS011;8734;59.272;17.780;2023-12-07T10:36:19;24.23;;;7.63;;
17235;SDS011;8734;59.272;17.780;2023-12-07T10:38:47;33.37;;;8.87;;
17235;SDS011;8734;59.272;17.780;2023-12-07T10:41:19;23.13;;;8.57;;
17235;SDS011;8734;59.272;17.780;2023-12-07T10:43:51;25.40;;;8.00;;
17235;SDS011;8734;59.272;17.780;2023-12-07T10:46:21;22.93;;;9.30;;
17235;SDS011;8734;59.272;17.780;2023-12-07T10:48:51;17.23;;;7.77;;
17235;SDS011;8734;59.272;17.780;2023-12-07T10:51:25;26.00;;;8.53;;
17235;SDS011;8734;59.272;17.780;2023-12-07T10:53:59;22.73;;;8.33;;
17235;SDS011;8734;59.272;17.780;2023-12-07T10:56:35;19.47;;;8.10;;
17235;SDS011;8734;59.272;17.780;2023-12-07T10:59:08;18.50;;;8.13;;
17235;SDS011;8734;59.272;17.780;2023-12-07T11:01:52;17.23;;;7.67;;
17235;SDS011;8734;59.272;17.780;2023-12-07T11:04:22;22.83;;;7.90;;
17235;SDS011;8734;59.272;17.780;2023-12-07T11:06:52;18.47;;;7.27;;
17235;SDS011;8734;59.272;17.780;2023-12-07T11:09:25;19.07;;;7.70;;
17235;SDS011;8734;59.272;17.780;2023-12-07T11:12:02;18.03;;;8.20;;
17235;SDS011;8734;59.272;17.780;2023-12-07T11:14:37;15.77;;;7.07;;
17235;SDS011;8734;59.272;17.780;2023-12-07T11:17:06;18.57;;;8.10;;
17235;SDS011;8734;59.272;17.780;2023-12-07T11:19:43;21.33;;;8.20;;
17235;SDS011;8734;59.272;17.780;2023-12-07T11:22:14;21.17;;;8.93;;
17235;SDS011;8734;59.272;17.780;2023-12-07T11:24:52;22.50;;;9.43;;
17235;SDS011;8734;59.272;17.780;2023-12-07T11:27:32;25.67;;;9.43;;
17235;SDS011;8734;59.272;17.780;2023-12-07T11:30:00;24.60;;;9.17;;
17235;SDS011;8734;59.272;17.780;2023-12-07T11:32:30;22.87;;;8.93;;
17235;SDS011;8734;59.272;17.780;2023-12-07T11:35:01;26.90;;;9.50;;
17235;SDS011;8734;59.272;17.780;2023-12-07T11:40:34;24.97;;;9.40;;
17235;SDS011;8734;59.272;17.780;2023-12-07T11:43:05;23.57;;;9.27;;
17235;SDS011;8734;59.272;17.780;2023-12-07T11:45:37;21.07;;;9.20;;
17235;SDS011;8734;59.272;17.780;2023-12-07T11:48:09;23.43;;;8.83;;
17235;SDS011;8734;59.272;17.780;2023-12-07T11:50:58;19.43;;;9.03;;
17235;SDS011;8734;59.272;17.780;2023-12-07T11:53:28;28.57;;;9.87;;
17235;SDS011;8734;59.272;17.780;2023-12-07T11:55:57;20.77;;;9.07;;
17235;SDS011;8734;59.272;17.780;2023-12-07T11:58:31;22.27;;;8.83;;
17235;SDS011;8734;59.272;17.780;2023-12-07T12:01:05;22.90;;;9.13;;
17235;SDS011;8734;59.272;17.780;2023-12-07T12:03:35;22.63;;;9.97;;
17235;SDS011;8734;59.272;17.780;2023-12-07T12:06:04;31.93;;;10.90;;
17235;SDS011;8734;59.272;17.780;2023-12-07T12:08:37;28.93;;;10.20;;
17235;SDS011;8734;59.272;17.780;2023-12-07T12:11:05;28.17;;;10.47;;
17235;SDS011;8734;59.272;17.780;2023-12-07T12:13:36;27.93;;;10.83;;
17235;SDS011;8734;59.272;17.780;2023-12-07T12:16:06;30.23;;;11.03;;
17235;SDS011;8734;59.272;17.780;2023-12-07T12:18:35;32.40;;;10.20;;
17235;SDS011;8734;59.272;17.780;2023-12-07T12:21:06;26.20;;;9.93;;
17235;SDS011;8734;59.272;17.780;2023-12-07T12:23:35;27.77;;;9.77;;
17235;SDS011;8734;59.272;17.780;2023-12-07T12:26:06;23.57;;;9.87;;
17235;SDS011;8734;59.272;17.780;2023-12-07T12:28:38;26.07;;;9.97;;
17235;SDS011;8734;59.272;17.780;2023-12-07T12:31:10;24.77;;;9.80;;
17235;SDS011;8734;59.272;17.780;2023-12-07T12:33:39;28.30;;;11.30;;
17235;SDS011;8734;59.272;17.780;2023-12-07T12:36:08;20.43;;;9.73;;
17235;SDS011;8734;59.272;17.780;2023-12-07T12:38:38;25.60;;;9.80;;
17235;SDS011;8734;59.272;17.780;2023-12-07T12:41:10;29.80;;;10.60;;
17235;SDS011;8734;59.272;17.780;2023-12-07T12:43:41;23.30;;;10.17;;
17235;SDS011;8734;59.272;17.780;2023-12-07T12:46:11;25.10;;;10.17;;
17235;SDS011;8734;59.272;17.780;2023-12-07T12:48:56;24.60;;;10.63;;
17235;SDS011;8734;59.272;17.780;2023-12-07T12:51:25;27.23;;;10.27;;
17235;SDS011;8734;59.272;17.780;2023-12-07T12:53:54;25.07;;;11.13;;
17235;SDS011;8734;59.272;17.780;2023-12-07T12:56:25;33.10;;;10.50;;
17235;SDS011;8734;59.272;17.780;2023-12-07T12:58:56;26.40;;;10.33;;
17235;SDS011;8734;59.272;17.780;2023-12-07T13:01:31;26.40;;;10.80;;
17235;SDS011;8734;59.272;17.780;2023-12-07T13:04:00;19.20;;;9.50;;
17235;SDS011;8734;59.272;17.780;2023-12-07T13:06:29;25.40;;;10.80;;
17235;SDS011;8734;59.272;17.780;2023-12-07T13:08:57;29.87;;;11.10;;
17235;SDS011;8734;59.272;17.780;2023-12-07T13:11:25;22.77;;;10.87;;
17235;SDS011;8734;59.272;17.780;2023-12-07T13:13:54;23.70;;;10.33;;
17235;SDS011;8734;59.272;17.780;2023-12-07T13:16:23;26.90;;;10.67;;
17235;SDS011;8734;59.272;17.780;2023-12-07T13:18:53;22.47;;;10.93;;
17235;SDS011;8734;59.272;17.780;2023-12-07T13:21:21;27.77;;;10.93;;
17235;SDS011;8734;59.272;17.780;2023-12-07T13:23:50;27.63;;;11.33;;
17235;SDS011;8734;59.272;17.780;2023-12-07T13:26:18;27.57;;;10.97;;
17235;SDS011;8734;59.272;17.780;2023-12-07T13:28:49;26.53;;;11.37;;
17235;SDS011;8734;59.272;17.780;2023-12-07T13:31:18;30.90;;;12.23;;
17235;SDS011;8734;59.272;17.780;2023-12-07T13:33:48;26.13;;;10.77;;
17235;SDS011;8734;59.272;17.780;2023-12-07T13:36:22;29.90;;;11.47;;
17235;SDS011;8734;59.272;17.780;2023-12-07T13:38:53;27.37;;;11.03;;
17235;SDS011;8734;59.272;17.780;2023-12-07T13:41:21;32.33;;;11.00;;
17235;SDS011;8734;59.272;17.780;2023-12-07T13:43:49;27.73;;;11.43;;
17235;SDS011;8734;59.272;17.780;2023-12-07T13:46:18;23.33;;;10.57;;
17235;SDS011;8734;59.272;17.780;2023-12-07T13:48:48;36.00;;;12.03;;
17235;SDS011;8734;59.272;17.780;2023-12-07T13:51:16;25.57;;;12.00;;
17235;SDS011;8734;59.272;17.780;2023-12-07T13:53:46;39.53;;;13.63;;
17235;SDS011;8734;59.272;17.780;2023-12-07T13:56:15;32.10;;;12.60;;
17235;SDS011;8734;59.272;17.780;2023-12-07T13:58:43;31.57;;;11.63;;
17235;SDS011;8734;59.272;17.780;2023-12-07T14:01:11;34.47;;;14.13;;
17235;SDS011;8734;59.272;17.780;2023-12-07T14:03:40;36.17;;;13.90;;
17235;SDS011;8734;59.272;17.780;2023-12-07T14:06:10;38.77;;;12.73;;
17235;SDS011;8734;59.272;17.780;2023-12-07T14:08:52;36.03;;;13.93;;
17235;SDS011;8734;59.272;17.780;2023-12-07T14:11:21;32.77;;;13.27;;
17235;SDS011;8734;59.272;17.780;2023-12-07T14:13:49;32.73;;;12.93;;
17235;SDS011;8734;59.272;17.780;2023-12-07T14:16:20;33.03;;;13.37;;
17235;SDS011;8734;59.272;17.780;2023-12-07T14:19:08;31.07;;;12.30;;
17235;SDS011;8734;59.272;17.780;2023-12-07T14:21:41;35.30;;;13.13;;
17235;SDS011;8734;59.272;17.780;2023-12-07T14:24:21;39.80;;;13.77;;
17235;SDS011;8734;59.272;17.780;2023-12-07T14:26:50;32.77;;;13.80;;
17235;SDS011;8734;59.272;17.780;2023-12-07T14:29:19;34.80;;;12.73;;
17235;SDS011;8734;59.272;17.780;2023-12-07T14:31:53;40.10;;;14.70;;
17235;SDS011;8734;59.272;17.780;2023-12-07T14:34:21;38.83;;;13.70;;
17235;SDS011;8734;59.272;17.780;2023-12-07T14:37:02;43.23;;;13.83;;
17235;SDS011;8734;59.272;17.780;2023-12-07T14:39:33;36.80;;;14.63;;
17235;SDS011;8734;59.272;17.780;2023-12-07T14:42:02;36.47;;;14.30;;
17235;SDS011;8734;59.272;17.780;2023-12-07T14:44:31;36.77;;;13.83;;
17235;SDS011;8734;59.272;17.780;2023-12-07T14:47:00;41.27;;;15.33;;
17235;SDS011;8734;59.272;17.780;2023-12-07T14:49:28;35.83;;;14.27;;
17235;SDS011;8734;59.272;17.780;2023-12-07T14:51:57;37.00;;;13.73;;